Time;durP1;ratioP1;P1;durP2;ratioP2;P2;SDS_P1;SDS_P2;PMS_P1;PMS_P2;Temp;Humidity;BMP_temperature;BMP_pressure;BME280_temperature;BME280_humidity;BME280_pressure;Samples;Min_cycle;Max_cycle;Signal;HPM_P1;HPM_P2
2021/04/05 04:58:01;;;;;;;;;;;;;;;-0.86;96.12;97298.25;1718540;80;20530;-71
2021/04/05 05:00:31;;;;;;;;;;;;;;;-0.79;96.73;97290.08;1733605;80;20623;-71
2021/04/05 05:03:01;;;;;;;;;;;;;;;-0.69;95.91;97282.05;1748332;79;20766;-71
2021/04/05 05:05:30;;;;;;;;;;;;;;;-0.60;95.92;97277.56;1742902;78;20144;-71
2021/04/05 05:07:58;;;;;;;;;;;;;;;-0.61;95.63;97267.73;1729430;81;20438;-70
2021/04/05 05:10:27;;;;;;;;;;;;;;;-0.61;96.84;97265.63;1723293;80;20815;-68
2021/04/05 05:12:54;;;;;;;;;;;;;;;-0.59;96.72;97270.92;1727178;81;20741;-66
2021/04/05 05:15:23;;;;;;;;;;;;;;;-0.55;96.80;97273.92;1732193;80;21658;-70
2021/04/05 05:17:51;;;;;;;;;;;;;;;-0.48;96.71;97268.31;1723149;80;20481;-72
2021/04/05 05:22:51;;;;;;;;;;;;;;;-0.36;96.30;97262.94;1718070;81;20569;-67
2021/04/05 05:25:19;;;;;;;;;;;;;;;-0.29;96.11;97254.78;1731432;80;20599;-69
2021/04/05 05:27:55;;;;;;;;;;;;;;;-0.24;95.57;97249.84;1717810;80;20805;-69
2021/04/05 05:30:25;;;;;;;;;;;;;;;-0.21;95.53;97240.90;1752441;78;20424;-69
2021/04/05 05:32:54;;;;;;;;;;;;;;;-0.14;95.25;97247.70;1731247;79;20561;-68
2021/04/05 05:35:23;;;;;;;;;;;;;;;-0.06;95.36;97242.39;1722349;79;20536;-67
2021/04/05 05:37:51;;;;;;;;;;;;;;;0.07;95.12;97243.48;1721065;80;20770;-63
2021/04/05 05:40:21;;;;;;;;;;;;;;;0.14;94.90;97240.43;1720165;80;22169;-68
2021/04/05 05:43:04;;;;;;;;;;;;;;;0.21;94.78;97233.02;1720634;80;20505;-70
2021/04/05 05:45:34;;;;;;;;;;;;;;;0.28;94.76;97234.34;1716347;80;20423;-68
2021/04/05 05:48:28;;;;;;;;;;;;;;;0.37;94.41;97230.58;1715346;80;20515;-69
2021/04/05 05:50:58;;;;;;;;;;;;;;;0.42;94.02;97228.23;1712287;80;20662;-64
2021/04/05 05:53:47;;;;;;;;;;;;;;;0.52;93.75;97222.67;1726451;80;22072;-67
2021/04/05 05:56:39;;;;;;;;;;;;;;;0.59;93.90;97219.62;1732636;80;20519;-67
2021/04/05 05:59:25;;;;;;;;;;;;;;;0.70;93.51;97214.70;1728818;79;20291;-67
2021/04/05 06:02:20;;;;;;;;;;;;;;;0.79;93.20;97213.50;1709974;80;20397;-68
2021/04/05 06:04:58;;;;;;;;;;;;;;;0.91;92.58;97205.98;1727472;80;20665;-68
2021/04/05 06:07:44;;;;;;;;;;;;;;;1.04;92.41;97196.14;1731477;80;20790;-68
2021/04/05 06:10:18;;;;;;;;;;;;;;;1.15;92.64;97198.16;1697769;80;20507;-69
2021/04/05 06:13:04;;;;;;;;;;;;;;;1.26;91.69;97191.56;1704391;80;20704;-70
2021/04/05 06:15:36;;;;;;;;;;;;;;;1.35;91.82;97197.65;1720994;80;20416;-74
2021/04/05 06:18:26;;;;;;;;;;;;;;;1.47;91.42;97186.18;1715523;80;20752;-67
2021/04/05 06:21:03;;;;;;;;;;;;;;;1.57;91.02;97180.11;1743690;79;21830;-68
2021/04/05 06:23:51;;;;;;;;;;;;;;;1.71;91.46;97177.79;1715758;80;21120;-68
2021/04/05 06:26:48;;;;;;;;;;;;;;;1.84;90.62;97173.87;1716282;80;20881;-71
2021/04/05 06:29:42;;;;;;;;;;;;;;;2.00;90.54;97164.86;1727079;79;20487;-73
2021/04/05 06:32:25;;;;;;;;;;;;;;;2.15;89.97;97156.33;1709782;80;20664;-70
2021/04/05 06:35:13;;;;;;;;;;;;;;;2.30;90.65;97155.57;1723213;79;22080;-69
2021/04/05 06:37:46;;;;;;;;;;;;;;;2.50;89.89;97145.59;1706860;80;20333;-70
2021/04/05 06:40:18;;;;;;;;;;;;;;;2.72;89.97;97143.77;1717742;80;20487;-69
2021/04/05 06:43:02;;;;;;;;;;;;;;;2.91;90.28;97138.13;1715906;80;20538;-72
2021/04/05 06:45:45;;;;;;;;;;;;;;;3.12;89.75;97136.47;1718644;80;20665;-70
2021/04/05 06:48:41;;;;;;;;;;;;;;;3.36;85.32;97140.57;1696424;80;21834;-66
2021/04/05 06:51:46;;;;;;;;;;;;;;;3.57;79.84;97138.88;1705872;79;20619;-67
2021/04/05 06:54:55;;;;;;;;;;;;;;;3.75;76.25;97138.07;1709871;80;20494;-68
2021/04/05 06:57:39;;;;;;;;;;;;;;;3.93;73.14;97134.19;1677222;82;20631;-68
2021/04/05 07:00:11;;;;;;;;;;;;;;;4.08;70.23;97124.22;1664970;83;20722;-61
2021/04/05 07:02:58;;;;;;;;;;;;;;;4.30;68.78;97127.15;1686706;82;21966;-65
2021/04/05 07:05:47;;;;;;;;;;;;;;;4.49;69.51;97132.59;1656500;82;20603;-64
2021/04/05 07:08:24;;;;;;;;;;;;;;;4.60;67.81;97121.44;1678756;81;20595;-66
2021/04/05 07:11:12;;;;;;;;;;;;;;;4.68;67.27;97114.59;1667421;83;20732;-68
2021/04/05 07:13:56;;;;;;;;;;;;;;;4.76;65.54;97113.48;1625434;84;20668;-67
2021/04/05 07:19:00;;;;;;;;;;;;;;;4.94;63.66;97123.04;1623070;85;20707;-62
2021/04/05 07:21:30;;;;;;;;;;;;;;;5.00;63.26;97118.23;1657938;83;20519;-68
2021/04/05 07:24:04;;;;;;;;;;;;;;;5.07;63.51;97114.51;1614879;85;21039;-69
2021/04/05 07:29:21;;;;;;;;;;;;;;;5.30;60.61;97111.64;1632048;84;22251;-66
2021/04/05 07:31:56;;;;;;;;;;;;;;;5.39;59.98;97099.86;1621582;85;20526;-74
2021/04/05 07:34:52;;;;;;;;;;;;;;;5.49;60.57;97106.08;1622917;85;20213;-68
2021/04/05 07:37:41;;;;;;;;;;;;;;;5.57;60.00;97105.45;1612193;85;20721;-68
2021/04/05 07:40:41;;;;;;;;;;;;;;;5.64;59.05;97094.39;1637804;84;20864;-73
2021/04/05 07:43:18;;;;;;;;;;;;;;;5.79;58.19;97096.00;1645833;84;21816;-69
2021/04/05 07:46:11;;;;;;;;;;;;;;;5.97;55.94;97089.89;1619496;85;20509;-68
2021/04/05 07:48:47;;;;;;;;;;;;;;;6.06;56.40;97088.48;1616326;84;20497;-70
2021/04/05 07:52:23;;;;;;;;;;;;;;;6.11;54.74;97085.98;1629006;83;20525;-69
2021/04/05 07:54:52;;;;;;;;;;;;;;;6.18;53.77;97088.74;1605952;86;20626;-69
2021/04/05 07:57:57;;;;;;;;;;;;;;;6.25;53.92;97082.08;1607842;85;22044;-70
2021/04/05 08:00:49;;;;;;;;;;;;;;;6.27;53.65;97075.58;1624645;84;20501;-68
2021/04/05 08:03:42;;;;;;;;;;;;;;;6.34;53.57;97074.13;1611283;85;20304;-67
2021/04/05 08:11:54;;;;;;;;;;;;;;;6.62;51.53;97068.11;1637892;85;22597;-68
2021/04/05 08:14:42;;;;;;;;;;;;;;;6.70;52.43;97063.02;1611866;86;20421;-68
2021/04/05 08:17:23;;;;;;;;;;;;;;;6.80;51.06;97051.41;1651609;80;20644;-66
2021/04/05 08:20:09;;;;;;;;;;;;;;;6.90;49.41;97051.58;1702798;81;20683;-72
2021/04/05 08:22:57;;;;;;;;;;;;;;;6.97;49.96;97047.78;1694543;82;20617;-72
2021/04/05 08:28:22;;;;;;;;;;;;;;;7.18;47.77;97039.72;1670924;83;20613;-69
2021/04/05 08:30:57;;;;;;;;;;;;;;;7.27;48.72;97029.14;1686130;82;20510;-70
2021/04/05 08:33:34;;;;;;;;;;;;;;;7.36;48.24;97025.06;1681535;83;20605;-72
2021/04/05 08:36:06;;;;;;;;;;;;;;;7.44;47.64;97027.77;1670782;82;20593;-71
2021/04/05 08:38:43;;;;;;;;;;;;;;;7.52;48.03;97020.03;1697969;82;20727;-69
2021/04/05 08:41:44;;;;;;;;;;;;;;;7.60;46.74;97017.79;1655882;82;20567;-67
2021/04/05 08:44:28;;;;;;;;;;;;;;;7.69;45.91;97003.77;1699851;82;20711;-71
2021/04/05 08:46:57;;;;;;;;;;;;;;;7.78;46.88;97003.63;1698069;82;22450;-68
2021/04/05 08:49:25;;;;;;;;;;;;;;;7.88;47.62;96995.08;1697286;82;21100;-66
2021/04/05 08:52:02;;;;;;;;;;;;;;;7.96;47.65;96992.82;1694634;82;21893;-70
2021/04/05 08:54:31;;;;;;;;;;;;;;;8.03;47.93;96990.00;1700789;80;20566;-70
2021/04/05 08:57:02;;;;;;;;;;;;;;;8.11;46.88;96975.97;1700303;80;20499;-69
2021/04/05 08:59:43;;;;;;;;;;;;;;;8.18;46.42;96977.07;1698912;82;20514;-68
2021/04/05 09:02:35;;;;;;;;;;;;;;;;;;;;;
2021/04/05 09:05:04;;;;;;;;;;;;;;;8.31;44.78;96976.69;1689600;82;21398;-69
2021/04/05 09:07:47;;;;;;;;;;;;;;;8.39;44.86;96978.86;1701837;81;20464;-67
2021/04/05 09:10:30;;;;;;;;;;;;;;;8.48;44.44;96979.99;1684254;83;20494;-72
2021/04/05 09:13:00;;;;;;;;;;;;;;;8.54;45.02;96973.75;1686210;82;20780;-67
2021/04/05 09:15:32;;;;;;;;;;;;;;;8.58;44.70;96964.86;1694000;82;20656;-70
2021/04/05 09:18:06;;;;;;;;;;;;;;;8.62;44.82;96960.71;1698151;82;21666;-69
2021/04/05 09:20:41;;;;;;;;;;;;;;;8.66;44.23;96951.81;1684565;82;20599;-75
2021/04/05 09:23:18;;;;;;;;;;;;;;;8.66;44.12;96943.44;1702333;82;20509;-67
2021/04/05 09:26:01;;;;;;;;;;;;;;;8.70;44.31;96945.05;1636645;84;20733;-68
2021/04/05 09:28:33;;;;;;;;;;;;;;;8.73;43.84;96950.56;1661475;83;20664;-72
2021/04/05 09:31:13;;;;;;;;;;;;;;;8.77;44.06;96942.48;1688870;82;21817;-71
2021/04/05 09:34:10;;;;;;;;;;;;;;;8.84;43.72;96944.87;1682180;82;20624;-74
2021/04/05 09:37:07;;;;;;;;;;;;;;;8.90;43.46;96938.63;1671105;82;20423;-67
2021/04/05 09:40:04;;;;;;;;;;;;;;;8.96;43.40;96941.53;1648397;83;20507;-67
2021/04/05 09:42:38;;;;;;;;;;;;;;;9.01;42.48;96936.31;1640854;83;20646;-71
2021/04/05 09:45:43;;;;;;;;;;;;;;;9.03;43.00;96929.52;1676184;82;21794;-65
2021/04/05 09:48:51;;;;;;;;;;;;;;;9.03;43.32;96929.00;1695875;80;20480;-62
2021/04/05 09:51:48;;;;;;;;;;;;;;;9.07;43.22;96924.84;1689936;82;20595;-64
2021/04/05 09:54:21;;;;;;;;;;;;;;;9.15;42.91;96909.91;1695854;81;20622;-67
2021/04/05 09:56:55;;;;;;;;;;;;;;;9.16;41.44;96908.08;1696264;83;20605;-64
2021/04/05 09:59:25;;;;;;;;;;;;;;;9.11;42.97;96905.44;1700985;83;21901;-61
2021/04/05 10:01:52;;;;;;;;;;;;;;;9.12;42.47;96906.50;1692176;82;20395;-63
2021/04/05 10:04:22;;;;;;;;;;;;;;;9.12;42.22;96910.44;1696791;82;20844;-65
2021/04/05 10:06:51;;;;;;;;;;;;;;;9.13;41.51;96912.02;1699687;81;20566;-64
2021/04/05 10:09:21;;;;;;;;;;;;;;;9.15;42.03;96898.11;1697127;81;20603;-71
2021/04/05 10:15:12;;;;;;;;;;;;;;;9.25;41.92;96895.55;1690197;82;20500;-66
2021/04/05 10:17:42;;;;;;;;;;;;;;;9.30;41.41;96890.83;1700000;81;20443;-70
2021/04/05 10:20:12;;;;;;;;;;;;;;;9.30;41.63;96890.83;1694121;82;20608;-68
2021/04/05 10:22:46;;;;;;;;;;;;;;;9.31;41.92;96894.52;1675979;82;20632;-69
2021/04/05 10:25:15;;;;;;;;;;;;;;;9.35;41.50;96875.13;1698301;81;21830;-69
2021/04/05 10:27:44;;;;;;;;;;;;;;;9.37;40.38;96883.51;1678966;82;38348;-73
2021/04/05 10:30:15;;;;;;;;;;;;;;;9.34;40.35;96880.11;1691724;82;20497;-68
2021/04/05 10:32:42;;;;;;;;;;;;;;;9.36;41.31;96864.91;1674517;83;20547;-67
2021/04/05 10:35:32;;;;;;;;;;;;;;;9.45;40.93;96874.36;1689834;82;20729;-64
2021/04/05 10:38:01;;;;;;;;;;;;;;;9.49;39.73;96867.56;1662188;82;22280;-64
2021/04/05 10:40:29;;;;;;;;;;;;;;;9.48;39.30;96875.16;1654883;83;20719;-69
2021/04/05 10:43:04;;;;;;;;;;;;;;;9.49;40.29;96867.56;1670879;83;20534;-66
2021/04/05 10:45:34;;;;;;;;;;;;;;;9.49;38.46;96875.43;1686588;83;20540;-70
2021/04/05 10:48:05;;;;;;;;;;;;;;;9.44;38.46;96867.01;1641431;84;21317;-64
2021/04/05 10:50:39;;;;;;;;;;;;;;;9.41;39.56;96860.98;1673827;81;20770;-69
2021/04/05 10:53:13;;;;;;;;;;;;;;;9.44;39.34;96861.77;1693888;82;21425;-66
2021/04/05 10:55:44;;;;;;;;;;;;;;;9.48;39.08;96864.15;1669996;83;20614;-69
2021/04/05 10:58:17;;;;;;;;;;;;;;;9.54;38.98;96857.08;1693085;82;20715;-69
2021/04/05 11:00:48;;;;;;;;;;;;;;;9.55;39.98;96845.02;1694323;81;20584;-68
2021/04/05 11:03:28;;;;;;;;;;;;;;;9.58;38.93;96848.97;1703808;82;21730;-67
2021/04/05 11:05:58;;;;;;;;;;;;;;;9.60;39.50;96841.08;1674511;83;20515;-66
2021/04/05 11:08:28;;;;;;;;;;;;;;;9.66;39.51;96846.59;1656780;83;20600;-71
2021/04/05 11:11:03;;;;;;;;;;;;;;;9.75;40.67;96845.04;1676931;83;20489;-70
2021/04/05 11:13:34;;;;;;;;;;;;;;;9.85;39.20;96844.80;1681770;81;22052;-67
2021/04/05 11:16:08;;;;;;;;;;;;;;;9.90;38.74;96835.08;1701051;82;22173;-70
2021/04/05 11:18:37;;;;;;;;;;;;;;;9.91;40.35;96820.13;1693555;82;20528;-68
2021/04/05 11:21:05;;;;;;;;;;;;;;;10.00;40.15;96821.97;1700514;81;20299;-68
2021/04/05 11:23:34;;;;;;;;;;;;;;;10.05;39.05;96826.42;1693525;81;20639;-66
2021/04/05 11:26:04;;;;;;;;;;;;;;;10.02;37.87;96823.78;1693312;82;21420;-69
2021/04/05 11:28:34;;;;;;;;;;;;;;;9.94;38.09;96811.73;1699263;81;20678;-69
2021/04/05 11:31:05;;;;;;;;;;;;;;;9.90;38.30;96820.64;1711226;82;20587;-67
2021/04/05 11:33:34;;;;;;;;;;;;;;;9.85;37.20;96819.34;1694248;82;20649;-70
2021/04/05 11:36:04;;;;;;;;;;;;;;;9.82;38.70;96806.73;1691526;82;20546;-67
2021/04/05 11:38:37;;;;;;;;;;;;;;;9.87;38.96;96812.52;1662816;83;20711;-67
2021/04/05 11:41:06;;;;;;;;;;;;;;;9.93;38.61;96797.82;1686424;83;21915;-68
2021/04/05 11:43:37;;;;;;;;;;;;;;;9.94;38.19;96802.00;1672098;83;20656;-71
2021/04/05 11:46:08;;;;;;;;;;;;;;;9.95;38.98;96797.02;1687585;82;20506;-69
2021/04/05 11:48:36;;;;;;;;;;;;;;;9.99;38.35;96791.52;1638026;84;20550;-71
2021/04/05 11:51:04;;;;;;;;;;;;;;;10.01;39.03;96782.07;1642647;84;20641;-69
2021/04/05 11:53:51;;;;;;;;;;;;;;;10.06;38.47;96785.47;1697028;82;21809;-68
2021/04/05 11:59:06;;;;;;;;;;;;;;;10.08;38.78;96787.84;1688767;82;20617;-66
2021/04/05 12:01:41;;;;;;;;;;;;;;;10.09;38.55;96779.67;1688670;82;20571;-70
2021/04/05 12:04:15;;;;;;;;;;;;;;;10.10;38.08;96778.63;1657416;83;20547;-69
2021/04/05 12:06:55;;;;;;;;;;;;;;;10.09;38.37;96769.17;1694195;82;21888;-70
2021/04/05 12:09:26;;;;;;;;;;;;;;;10.10;38.75;96755.52;1676760;83;20501;-70
2021/04/05 12:11:55;;;;;;;;;;;;;;;10.17;39.45;96757.38;1668944;83;20409;-68
2021/04/05 12:14:27;;;;;;;;;;;;;;;10.27;39.04;96758.67;1667143;83;20490;-71
2021/04/05 12:16:55;;;;;;;;;;;;;;;10.34;39.03;96753.14;1659366;82;20548;-69
2021/04/05 12:19:45;;;;;;;;;;;;;;;10.38;37.91;96753.64;1674288;83;21898;-66
2021/04/05 12:22:13;;;;;;;;;;;;;;;10.34;37.62;96749.99;1670920;83;20631;-67
2021/04/05 12:24:46;;;;;;;;;;;;;;;10.31;37.80;96730.82;1673969;83;20584;-71
2021/04/05 12:27:13;;;;;;;;;;;;;;;10.32;37.77;96727.14;1670218;83;20492;-71
2021/04/05 12:29:43;;;;;;;;;;;;;;;10.35;37.53;96738.44;1671564;82;21164;-69
2021/04/05 12:32:17;;;;;;;;;;;;;;;10.35;38.25;96716.12;1665199;83;22070;-68
2021/04/05 12:34:47;;;;;;;;;;;;;;;10.39;37.83;96709.78;1663032;83;20533;-71
2021/04/05 12:37:17;;;;;;;;;;;;;;;10.44;38.28;96701.37;1650184;84;20437;-72
2021/04/05 12:39:51;;;;;;;;;;;;;;;10.49;38.25;96700.56;1650671;84;20587;-74
2021/04/05 12:42:21;;;;;;;;;;;;;;;10.52;37.83;96692.91;1653678;83;21004;-67
2021/04/05 12:44:56;;;;;;;;;;;;;;;10.51;37.47;96691.89;1646641;83;21950;-69
2021/04/05 12:47:36;;;;;;;;;;;;;;;10.43;37.20;96680.11;1685414;83;20412;-69
2021/04/05 12:50:06;;;;;;;;;;;;;;;10.38;38.75;96687.20;1701642;82;20546;-74
2021/04/05 12:52:36;;;;;;;;;;;;;;;10.44;38.49;96677.74;1688758;82;20672;-72
2021/04/05 12:55:09;;;;;;;;;;;;;;;10.48;38.91;96660.90;1691877;82;20605;-68
2021/04/05 12:57:37;;;;;;;;;;;;;;;10.54;38.12;96655.87;1689795;82;22152;-65
2021/04/05 13:00:18;;;;;;;;;;;;;;;10.56;38.34;96655.87;1681348;81;20360;-67
2021/04/05 13:02:46;;;;;;;;;;;;;;;10.62;38.05;96651.37;1697232;81;20397;-66
2021/04/05 13:05:34;;;;;;;;;;;;;;;10.65;38.98;96640.33;1692084;81;20668;-70
2021/04/05 13:08:05;;;;;;;;;;;;;;;10.74;39.11;96640.52;1682570;82;20559;-66
2021/04/05 13:10:40;;;;;;;;;;;;;;;10.86;38.89;96633.09;1648406;83;21943;-64
2021/04/05 13:13:13;;;;;;;;;;;;;;;10.93;37.54;96633.58;1634015;84;20738;-67
2021/04/05 13:15:44;;;;;;;;;;;;;;;10.93;37.73;96633.05;1646169;84;20510;-71
2021/04/05 13:18:25;;;;;;;;;;;;;;;10.93;37.11;96624.37;1641003;84;20603;-71
2021/04/05 13:20:58;;;;;;;;;;;;;;;10.89;37.84;96625.44;1633483;86;20766;-65
2021/04/05 13:23:26;;;;;;;;;;;;;;;10.87;37.23;96635.98;1626679;84;21985;-67
2021/04/05 13:26:01;;;;;;;;;;;;;;;10.83;37.66;96624.43;1641852;84;20496;-68
2021/04/05 13:28:30;;;;;;;;;;;;;;;10.82;36.96;96634.16;1687354;82;20525;-69
2021/04/05 13:31:00;;;;;;;;;;;;;;;10.79;37.50;96629.99;1679291;82;20551;-73
2021/04/05 13:33:28;;;;;;;;;;;;;;;10.78;37.72;96627.11;1690425;82;20521;-66
2021/04/05 13:36:04;;;;;;;;;;;;;;;10.76;37.43;96614.23;1703984;81;21937;-66
2021/04/05 13:38:32;;;;;;;;;;;;;;;10.72;37.46;96602.70;1695318;81;20504;-68
2021/04/05 13:41:05;;;;;;;;;;;;;;;10.71;37.45;96606.91;1694223;81;20147;-65
2021/04/05 13:43:33;;;;;;;;;;;;;;;10.73;38.31;96600.87;1661537;84;21097;-65
2021/04/05 13:46:05;;;;;;;;;;;;;;;10.75;37.09;96607.40;1647540;84;20592;-66
2021/04/05 13:48:33;;;;;;;;;;;;;;;10.71;37.14;96598.50;1650398;83;22100;-67
2021/04/05 13:51:01;;;;;;;;;;;;;;;10.67;37.86;96601.41;1697126;82;20579;-66
2021/04/05 13:53:40;;;;;;;;;;;;;;;10.68;38.15;96593.00;1696838;82;20397;-68
2021/04/05 13:56:10;;;;;;;;;;;;;;;10.72;37.97;96592.20;1702088;81;20649;-70
2021/04/05 13:58:40;;;;;;;;;;;;;;;10.78;37.51;96586.37;1690440;82;20607;-71
2021/04/05 14:01:09;;;;;;;;;;;;;;;10.80;37.53;96588.98;1688091;82;21895;-72
2021/04/05 14:03:41;;;;;;;;;;;;;;;10.85;38.21;96579.75;1675944;81;21607;-65
2021/04/05 14:06:30;;;;;;;;;;;;;;;10.93;37.56;96583.63;1695450;81;20506;-62
2021/04/05 14:08:58;;;;;;;;;;;;;;;10.99;37.33;96575.17;1648680;83;20919;-59
2021/04/05 14:11:29;;;;;;;;;;;;;;;11.07;37.47;96572.73;1702493;82;20852;-60
2021/04/05 14:13:57;;;;;;;;;;;;;;;11.15;37.45;96567.41;1682992;82;20858;-60
2021/04/05 14:16:47;;;;;;;;;;;;;;;11.26;37.61;96568.88;1682502;83;20452;-60
2021/04/05 14:19:34;;;;;;;;;;;;;;;11.39;36.61;96566.12;1693026;83;20378;-59
2021/04/05 14:22:12;;;;;;;;;;;;;;;11.44;37.01;96576.61;1696345;82;20497;-61
2021/04/05 14:24:45;;;;;;;;;;;;;;;11.48;36.73;96559.98;1668790;84;20681;-60
2021/04/05 14:27:16;;;;;;;;;;;;;;;11.53;36.58;96551.23;1673644;84;21938;-60
2021/04/05 14:29:53;;;;;;;;;;;;;;;11.59;36.73;96546.98;1666496;83;20622;-60
2021/04/05 14:32:23;;;;;;;;;;;;;;;11.69;36.94;96551.33;1668783;84;20480;-60
2021/04/05 14:34:52;;;;;;;;;;;;;;;11.80;35.66;96550.72;1670999;84;20480;-61
2021/04/05 14:37:32;;;;;;;;;;;;;;;11.80;35.61;96546.78;1695256;83;20804;-60
2021/04/05 14:40:03;;;;;;;;;;;;;;;11.79;36.14;96534.14;1697568;82;22020;-60
2021/04/05 14:42:37;;;;;;;;;;;;;;;11.83;35.22;96538.30;1690624;83;20479;-60
2021/04/05 14:45:10;;;;;;;;;;;;;;;11.80;35.83;96532.30;1699890;82;20594;-60
2021/04/05 14:47:40;;;;;;;;;;;;;;;11.78;36.15;96530.47;1675673;83;20757;-60
2021/04/05 14:50:10;;;;;;;;;;;;;;;11.81;35.71;96524.66;1698653;83;20627;-60
